Time;durP1;ratioP1;P1;durP2;ratioP2;P2;SDS_P1;SDS_P2;PMS_P1;PMS_P2;Temp;Humidity;BMP_temperature;BMP_pressure;BME280_temperature;BME280_humidity;BME280_pressure;Samples;Min_cycle;Max_cycle;Signal;HPM_P1;HPM_P2
2023/03/02 00:01:27;;;;;;;1.98;1.60;;;;;;;4.93;98.03;102491.09;4960256;28;20117;-84
2023/03/02 00:03:57;;;;;;;1.52;1.17;;;;;;;4.90;97.83;102470.81;4976797;28;20436;-84
2023/03/02 00:06:25;;;;;;;3.13;1.73;;;;;;;4.99;97.40;102474.69;4960972;28;20034;-81
2023/03/02 00:08:51;;;;;;;4.18;1.75;;;;;;;4.96;97.03;102481.06;4945184;28;20038;-82
2023/03/02 00:11:17;;;;;;;4.13;1.95;;;;;;;4.87;97.26;102467.47;4961265;28;20034;-82
2023/03/02 00:13:43;;;;;;;4.63;2.10;;;;;;;4.88;97.27;102480.72;4993780;28;20469;-82
2023/03/02 00:16:08;;;;;;;2.65;1.70;;;;;;;4.94;97.50;102480.31;4976947;28;20026;-82
2023/03/02 00:18:34;;;;;;;1.77;1.25;;;;;;;4.94;97.28;102487.47;4963972;28;20089;-81
2023/03/02 00:21:02;;;;;;;2.17;1.45;;;;;;;4.93;97.22;102497.28;4962594;28;20045;-81
2023/03/02 00:23:30;;;;;;;3.28;1.77;;;;;;;4.89;97.73;102489.56;4963097;28;20046;-81
2023/03/02 00:25:56;;;;;;;2.15;1.50;;;;;;;4.83;98.01;102491.66;4977648;28;20034;-82
2023/03/02 00:28:21;;;;;;;2.20;1.25;;;;;;;4.89;97.68;102494.88;4960912;28;20357;-81
2023/03/02 00:30:47;;;;;;;3.13;1.85;;;;;;;4.94;97.56;102490.13;4960693;28;20030;-82
2023/03/02 00:33:13;;;;;;;3.17;1.88;;;;;;;4.90;97.41;102477.97;4960124;28;20038;-82
2023/03/02 00:35:39;;;;;;;2.15;1.80;;;;;;;4.92;97.23;102473.38;4960567;28;20392;-82
2023/03/02 00:38:08;;;;;;;2.30;1.60;;;;;;;4.95;96.93;102473.16;4992153;28;20027;-82
2023/03/02 00:40:35;;;;;;;3.33;1.85;;;;;;;4.89;97.16;102471.75;4976897;28;20118;-82
2023/03/02 00:43:00;;;;;;;3.70;1.70;;;;;;;4.88;97.34;102462.06;4960425;28;20052;-81
2023/03/02 00:45:32;;;;;;;4.95;2.15;;;;;;;4.85;97.38;102455.09;4976775;28;20038;-80
2023/03/02 00:47:57;;;;;;;2.15;1.80;;;;;;;4.95;97.34;102468.72;4960774;28;20045;-81
2023/03/02 00:50:25;;;;;;;2.17;1.58;;;;;;;4.95;97.05;102473.16;4960092;28;20401;-82
2023/03/02 00:52:53;;;;;;;5.00;2.95;;;;;;;4.89;97.21;102466.41;4960189;28;20517;-82
2023/03/02 00:55:19;;;;;;;6.00;2.60;;;;;;;4.83;97.72;102458.81;4976305;28;20030;-82
2023/03/02 00:57:53;;;;;;;3.50;2.28;;;;;;;4.89;98.34;102463.75;4976507;28;20469;-81
2023/03/02 01:00:27;;;;;;;4.97;2.35;;;;;;;4.83;98.21;102459.66;4977294;28;20409;-82
2023/03/02 01:02:55;;;;;;;3.15;2.53;;;;;;;4.87;98.91;102452.34;4977613;28;20042;-80
2023/03/02 01:05:21;;;;;;;6.53;2.72;;;;;;;4.90;98.99;102445.97;4992166;28;20046;-82
2023/03/02 01:07:50;;;;;;;4.60;1.85;;;;;;;4.91;98.97;102456.53;4960085;28;20042;-82
2023/03/02 01:10:16;;;;;;;4.88;1.83;;;;;;;4.81;99.10;102434.91;4976280;28;20473;-82
2023/03/02 01:12:42;;;;;;;3.72;2.20;;;;;;;4.90;99.34;102443.31;4995516;28;20049;-82
2023/03/02 01:15:09;;;;;;;4.97;2.60;;;;;;;4.87;99.08;102448.81;4964004;28;20412;-82
2023/03/02 01:17:38;;;;;;;3.10;2.05;;;;;;;4.85;99.98;102444.44;4964818;28;20046;-81
2023/03/02 01:20:07;;;;;;;3.13;2.40;;;;;;;4.87;100.00;102444.34;4979347;28;20045;-80
2023/03/02 01:22:33;;;;;;;4.57;2.55;;;;;;;4.78;100.00;102447.59;4948629;28;20064;-82
2023/03/02 01:24:59;;;;;;;3.20;2.17;;;;;;;4.73;100.00;102437.22;4979597;28;20532;-82
2023/03/02 01:27:24;;;;;;;3.47;2.40;;;;;;;4.69;100.00;102434.84;4963811;28;20125;-82
2023/03/02 01:29:53;;;;;;;4.28;2.58;;;;;;;4.68;100.00;102444.63;4963860;28;20034;-82
2023/03/02 01:32:24;;;;;;;5.10;2.83;;;;;;;4.56;100.00;102416.13;4995239;28;20125;-82
2023/03/02 01:34:52;;;;;;;3.05;2.13;;;;;;;4.69;100.00;102429.53;4997203;28;20030;-82
2023/03/02 01:37:19;;;;;;;2.53;2.10;;;;;;;4.68;100.00;102430.47;4963486;28;20039;-82
2023/03/02 01:39:45;;;;;;;3.75;2.78;;;;;;;4.64;100.00;102429.81;4979035;28;20030;-82
2023/03/02 01:42:11;;;;;;;3.80;2.70;;;;;;;4.65;100.00;102434.19;4947530;28;20572;-81
2023/03/02 01:44:51;;;;;;;2.20;1.98;;;;;;;4.69;100.00;102425.06;4963470;28;20121;-82
2023/03/02 01:47:35;;;;;;;2.75;2.17;;;;;;;4.65;100.00;102422.66;4978878;28;20038;-81
2023/03/02 01:50:19;;;;;;;5.53;3.17;;;;;;;4.57;100.00;102409.81;4963639;28;20030;-82
2023/03/02 01:52:45;;;;;;;3.83;2.65;;;;;;;4.59;100.00;102411.44;4978857;28;20046;-82
2023/03/02 01:55:23;;;;;;;3.28;1.98;;;;;;;4.64;100.00;102421.81;4978278;28;20485;-81
2023/03/02 01:57:50;;;;;;;4.00;2.38;;;;;;;4.62;100.00;102413.91;4965158;28;20473;-82
2023/03/02 02:00:28;;;;;;;6.70;3.53;;;;;;;4.62;100.00;102419.25;4963044;28;20085;-82
2023/03/02 02:03:07;;;;;;;8.35;3.00;;;;;;;4.67;100.00;102415.44;4978606;28;20041;-81
2023/03/02 02:05:40;;;;;;;3.90;2.70;;;;;;;4.65;100.00;102396.88;4995210;28;20042;-80
2023/03/02 02:08:09;;;;;;;4.05;2.28;;;;;;;4.67;100.00;102402.97;4979730;28;20025;-81
2023/03/02 02:10:37;;;;;;;6.30;2.75;;;;;;;4.60;100.00;102405.19;4996262;28;20118;-82
2023/03/02 02:13:12;;;;;;;5.63;3.13;;;;;;;4.56;100.00;102402.78;4994984;28;20045;-80
2023/03/02 02:15:41;;;;;;;4.25;2.72;;;;;;;4.55;100.00;102395.75;4978572;28;20089;-82
2023/03/02 02:18:06;;;;;;;6.35;3.60;;;;;;;4.42;100.00;102374.38;4978772;28;20158;-81
2023/03/02 02:20:41;;;;;;;5.43;3.70;;;;;;;4.51;100.00;102392.41;4962480;28;20520;-81
2023/03/02 02:23:27;;;;;;;4.18;3.13;;;;;;;4.48;100.00;102389.09;4978216;28;20061;-82
2023/03/02 02:26:12;;;;;;;5.85;3.17;;;;;;;4.45;100.00;102384.81;4962970;28;20092;-82
2023/03/02 02:29:02;;;;;;;5.30;3.10;;;;;;;4.47;100.00;102382.91;4978385;28;20109;-82
2023/03/02 02:31:43;;;;;;;3.35;2.45;;;;;;;4.45;100.00;102370.66;4994991;28;20030;-81
2023/03/02 02:34:24;;;;;;;4.00;3.33;;;;;;;4.45;100.00;102371.50;4975835;28;20128;-82
2023/03/02 02:36:53;;;;;;;4.60;2.90;;;;;;;4.43;100.00;102369.91;4978185;28;20101;-81
2023/03/02 02:39:40;;;;;;;2.97;1.90;;;;;;;4.44;100.00;102361.78;4978456;28;20038;-81
2023/03/02 02:42:12;;;;;;;3.25;1.98;;;;;;;4.37;100.00;102333.84;4978199;28;20034;-81
2023/03/02 02:44:38;;;;;;;3.70;3.30;;;;;;;4.52;100.00;102362.16;4994415;28;20033;-80
2023/03/02 02:47:15;;;;;;;3.33;2.45;;;;;;;4.61;100.00;102350.09;4978049;28;20026;-82
2023/03/02 02:49:41;;;;;;;3.97;2.88;;;;;;;4.68;100.00;102348.72;4994156;28;20543;-83
2023/03/02 02:52:16;;;;;;;3.05;2.35;;;;;;;4.72;100.00;102341.41;4961252;28;20065;-82
2023/03/02 02:54:44;;;;;;;3.13;2.30;;;;;;;4.72;100.00;102333.41;4978446;28;20504;-83
2023/03/02 02:57:11;;;;;;;3.72;2.63;;;;;;;4.67;100.00;102320.38;4993698;28;20034;-82
2023/03/02 02:59:42;;;;;;;4.00;2.40;;;;;;;4.64;100.00;102307.25;4961798;28;20034;-82
2023/03/02 03:02:16;;;;;;;5.45;1.92;;;;;;;4.73;100.00;102325.28;4962202;28;20049;-82
2023/03/02 03:04:42;;;;;;;3.92;2.38;;;;;;;4.67;100.00;102325.69;4977530;28;20061;-80
2023/03/02 03:07:09;;;;;;;2.28;1.88;;;;;;;4.66;100.00;102318.66;4961902;28;20042;-82
2023/03/02 03:09:38;;;;;;;3.50;2.35;;;;;;;4.67;100.00;102322.19;4962045;28;20049;-82
2023/03/02 03:12:12;;;;;;;3.40;2.50;;;;;;;4.64;100.00;102320.56;4977750;28;20496;-81
2023/03/02 03:14:40;;;;;;;4.15;2.63;;;;;;;4.57;100.00;102322.75;4961792;28;20469;-81
2023/03/02 03:17:12;;;;;;;2.20;1.98;;;;;;;4.55;100.00;102313.16;4961520;28;20035;-83
2023/03/02 03:19:45;;;;;;;2.33;1.88;;;;;;;4.52;100.00;102302.69;4978501;28;20531;-83
2023/03/02 03:22:12;;;;;;;5.60;2.50;;;;;;;4.54;100.00;102311.47;4993476;28;20034;-82
2023/03/02 03:24:39;;;;;;;3.55;2.40;;;;;;;4.54;100.00;102303.47;4977240;28;20042;-83
2023/03/02 03:27:07;;;;;;;3.67;2.67;;;;;;;4.57;100.00;102300.59;4993228;28;20496;-80
2023/03/02 03:29:34;;;;;;;3.25;1.52;;;;;;;4.55;100.00;102305.16;4993718;28;20030;-82
2023/03/02 03:32:01;;;;;;;3.28;2.30;;;;;;;4.53;100.00;102309.75;4993349;28;20062;-82
2023/03/02 03:34:27;;;;;;;4.03;2.45;;;;;;;4.49;100.00;102303.75;4993435;28;20030;-82
2023/03/02 03:36:53;;;;;;;3.30;2.03;;;;;;;4.54;100.00;102303.47;4961244;28;20030;-82
2023/03/02 03:39:19;;;;;;;3.28;2.22;;;;;;;4.52;100.00;102302.69;4976728;28;20030;-81
2023/03/02 03:41:45;;;;;;;4.63;1.85;;;;;;;4.49;100.00;102300.25;4960830;28;20044;-82
2023/03/02 03:44:11;;;;;;;2.83;2.08;;;;;;;4.40;100.00;102277.72;4993570;28;20030;-82
2023/03/02 03:46:37;;;;;;;2.97;2.15;;;;;;;4.49;100.00;102300.25;4977049;28;20034;-81
2023/03/02 03:49:03;;;;;;;2.40;1.98;;;;;;;4.49;100.00;102292.25;4961144;28;20034;-82
2023/03/02 03:51:33;;;;;;;3.22;1.92;;;;;;;4.54;100.00;102296.31;4976896;28;20054;-81
2023/03/02 03:54:06;;;;;;;2.25;1.55;;;;;;;4.52;100.00;102286.72;4977933;28;20031;-84
2023/03/02 03:56:35;;;;;;;2.35;1.70;;;;;;;4.47;100.00;102281.69;4992722;28;20030;-84
2023/03/02 03:59:05;;;;;;;3.15;2.00;;;;;;;4.53;100.00;102291.97;4976830;28;20120;-83
2023/03/02 04:01:52;;;;;;;3.20;1.98;;;;;;;4.54;100.00;102292.81;4993218;28;20052;-83
2023/03/02 04:04:20;;;;;;;2.30;2.08;;;;;;;4.48;100.00;102288.75;4993013;28;20030;-81
2023/03/02 04:06:46;;;;;;;4.57;2.47;;;;;;;4.44;100.00;102278.38;4961137;28;20073;-81
2023/03/02 04:09:16;;;;;;;2.45;1.63;;;;;;;4.41;100.00;102282.94;4960685;28;20074;-83
2023/03/02 04:11:44;;;;;;;4.22;2.35;;;;;;;4.46;100.00;102290.63;4977422;28;20461;-81
2023/03/02 04:14:10;;;;;;;3.20;1.88;;;;;;;4.45;100.00;102274.78;4960742;28;20451;-83
2023/03/02 04:16:36;;;;;;;3.92;2.55;;;;;;;4.51;100.00;102282.38;4960830;28;20030;-82
2023/03/02 04:19:02;;;;;;;2.67;2.05;;;;;;;4.55;100.00;102274.09;4976622;28;20407;-82
2023/03/02 04:21:28;;;;;;;3.63;2.63;;;;;;;4.59;100.00;102278.25;4976120;28;20089;-84
2023/03/02 04:23:53;;;;;;;4.18;3.22;;;;;;;4.58;100.00;102284.53;4976757;28;20034;-82
2023/03/02 04:26:21;;;;;;;3.03;2.35;;;;;;;4.55;100.00;102283.84;4960793;28;20039;-84
2023/03/02 04:28:49;;;;;;;4.97;3.22;;;;;;;4.52;100.00;102279.59;4992248;28;20038;-84
2023/03/02 04:31:16;;;;;;;3.55;2.95;;;;;;;4.49;100.00;102268.28;4977270;28;20061;-83
2023/03/02 04:33:41;;;;;;;6.22;3.70;;;;;;;4.43;100.00;102261.53;4976354;28;20105;-81
2023/03/02 04:36:07;;;;;;;3.58;2.67;;;;;;;4.40;100.00;102259.94;4976352;28;20124;-82
2023/03/02 04:38:33;;;;;;;4.30;2.42;;;;;;;4.38;100.00;102268.97;4960850;28;20130;-82
2023/03/02 04:40:59;;;;;;;5.32;2.90;;;;;;;4.32;100.00;102256.91;4992089;28;20030;-81
2023/03/02 04:43:24;;;;;;;5.22;3.10;;;;;;;4.43;100.00;102271.34;4960663;28;20038;-84
2023/03/02 04:45:51;;;;;;;5.15;3.03;;;;;;;4.39;100.00;102266.22;4961179;28;20030;-84
2023/03/02 04:48:17;;;;;;;6.55;4.63;;;;;;;4.36;100.00;102263.72;4964169;28;20037;-83
2023/03/02 04:50:47;;;;;;;6.22;3.95;;;;;;;4.32;100.00;102262.25;4996373;28;20119;-82
2023/03/02 04:53:13;;;;;;;2.55;1.77;;;;;;;4.26;100.00;102259.09;4980533;28;20046;-81
2023/03/02 04:55:39;;;;;;;3.95;2.78;;;;;;;4.28;100.00;102266.03;4996927;28;20022;-82
2023/03/02 04:58:06;;;;;;;3.38;2.92;;;;;;;4.26;100.00;102256.44;4996530;28;20397;-82
2023/03/02 05:00:34;;;;;;;3.03;2.60;;;;;;;4.33;100.00;102269.25;4964788;28;20093;-84
2023/03/02 05:03:03;;;;;;;4.47;2.65;;;;;;;4.30;100.00;102264.13;4979751;28;20065;-84
2023/03/02 05:05:32;;;;;;;4.10;2.35;;;;;;;4.22;100.00;102247.78;4980241;28;20034;-82
2023/03/02 05:07:58;;;;;;;3.60;2.65;;;;;;;4.39;100.00;102268.88;4980102;28;20042;-83
2023/03/02 05:10:26;;;;;;;5.30;2.92;;;;;;;4.37;100.00;102265.47;4996277;28;20114;-84
2023/03/02 05:13:01;;;;;;;6.80;3.75;;;;;;;4.32;100.00;102262.25;4995490;28;20033;-84
2023/03/02 05:15:40;;;;;;;5.10;2.97;;;;;;;4.30;100.00;102255.28;4967430;28;20545;-83
2023/03/02 05:18:07;;;;;;;7.00;3.60;;;;;;;4.30;100.00;102250.81;4979866;28;20041;-82
2023/03/02 05:20:33;;;;;;;7.53;3.22;;;;;;;4.32;100.00;102248.06;4995614;28;20520;-82
2023/03/02 05:23:01;;;;;;;6.25;4.60;;;;;;;4.14;100.00;102229.66;4995652;28;20057;-81
2023/03/02 05:25:29;;;;;;;4.65;3.38;;;;;;;4.26;100.00;102262.63;4963530;28;20390;-81
2023/03/02 05:27:54;;;;;;;3.88;2.38;;;;;;;4.33;100.00;102255.09;4963727;28;20121;-83
2023/03/02 05:30:21;;;;;;;3.33;2.75;;;;;;;4.34;100.00;102255.00;4979228;28;20117;-82
2023/03/02 05:32:47;;;;;;;4.38;3.22;;;;;;;4.36;100.00;102252.22;4995553;28;20034;-82
2023/03/02 05:35:13;;;;;;;4.78;3.08;;;;;;;4.45;100.00;102264.13;4979449;28;20034;-81
2023/03/02 05:37:41;;;;;;;5.30;3.40;;;;;;;4.41;100.00;102261.63;4978853;28;20034;-80
2023/03/02 05:40:12;;;;;;;3.50;2.30;;;;;;;4.34;100.00;102254.13;4980051;28;20473;-80
2023/03/02 05:42:39;;;;;;;4.82;3.28;;;;;;;4.31;100.00;102249.00;4963141;28;20038;-82
2023/03/02 05:45:06;;;;;;;5.00;3.03;;;;;;;4.24;100.00;102247.72;4979439;28;20065;-80
2023/03/02 05:47:32;;;;;;;3.78;2.58;;;;;;;4.29;100.00;102251.78;4963016;28;20038;-83
2023/03/02 05:49:58;;;;;;;5.10;3.10;;;;;;;4.27;100.00;102248.34;4963172;28;20386;-81
2023/03/02 05:52:24;;;;;;;3.97;2.78;;;;;;;4.26;100.00;102244.00;4996379;28;20113;-80
2023/03/02 05:54:50;;;;;;;3.03;1.92;;;;;;;4.36;100.00;102255.75;4963078;28;20054;-81
2023/03/02 05:57:16;;;;;;;2.35;1.85;;;;;;;4.30;100.00;102248.16;4962096;28;20085;-83
2023/03/02 05:59:41;;;;;;;3.55;2.65;;;;;;;4.32;100.00;102256.91;4995980;28;20053;-83
2023/03/02 06:02:07;;;;;;;3.42;2.50;;;;;;;4.29;100.00;102246.47;4979281;28;20362;-83
2023/03/02 06:04:33;;;;;;;4.15;2.35;;;;;;;4.32;100.00;102237.41;4963505;28;20030;-82
2023/03/02 06:06:58;;;;;;;4.22;2.90;;;;;;;4.30;100.00;102245.50;4962954;28;20037;-81
2023/03/02 06:09:24;;;;;;;4.13;2.80;;;;;;;4.19;100.00;102240.00;4995038;28;20030;-81
2023/03/02 06:11:53;;;;;;;4.88;3.05;;;;;;;4.26;100.00;102252.00;4962957;28;20102;-83
2023/03/02 06:14:18;;;;;;;3.08;2.15;;;;;;;4.04;100.00;102220.53;4962953;28;20034;-82
2023/03/02 06:16:44;;;;;;;5.15;2.55;;;;;;;4.15;100.00;102226.06;4962636;28;20080;-84
2023/03/02 06:19:10;;;;;;;5.03;3.22;;;;;;;4.29;100.00;102246.47;4963139;28;20030;-84
2023/03/02 06:21:36;;;;;;;3.28;1.95;;;;;;;4.28;100.00;102242.06;4962861;28;20465;-85
2023/03/02 06:24:04;;;;;;;6.22;3.00;;;;;;;4.42;100.00;102238.53;4962816;28;20381;-83
2023/03/02 06:26:30;;;;;;;4.95;2.92;;;;;;;4.34;100.00;102233.72;4996076;28;20515;-84
2023/03/02 06:28:55;;;;;;;4.65;3.85;;;;;;;4.48;100.00;102239.94;4962848;28;20034;-82
2023/03/02 06:31:21;;;;;;;4.47;3.05;;;;;;;4.46;100.00;102245.34;4995660;28;20492;-82
2023/03/02 06:33:47;;;;;;;1.77;1.60;;;;;;;4.39;100.00;102242.25;4978873;28;20057;-83
2023/03/02 06:36:13;;;;;;;2.95;2.10;;;;;;;4.40;100.00;102245.78;4962484;28;20034;-83
2023/03/02 06:38:39;;;;;;;6.05;2.65;;;;;;;4.39;100.00;102249.38;4994328;28;20027;-85
2023/03/02 06:41:05;;;;;;;3.85;2.33;;;;;;;4.32;100.00;102243.59;4962701;28;20093;-85
2023/03/02 06:43:30;;;;;;;3.70;2.45;;;;;;;4.20;100.00;102225.72;4962689;28;20034;-84
2023/03/02 06:45:56;;;;;;;2.75;2.00;;;;;;;4.21;100.00;102234.56;4994411;28;20457;-85
2023/03/02 06:48:21;;;;;;;3.78;2.35;;;;;;;4.29;100.00;102237.63;4994631;28;20430;-84
2023/03/02 06:50:47;;;;;;;3.85;2.63;;;;;;;4.23;100.00;102233.53;4962060;28;20053;-84
2023/03/02 06:53:14;;;;;;;3.90;2.78;;;;;;;4.27;100.00;102248.34;4977886;28;20037;-84
2023/03/02 06:55:40;;;;;;;3.35;2.78;;;;;;;4.31;100.00;102254.34;4993996;28;20038;-82
2023/03/02 06:58:05;;;;;;;2.75;2.00;;;;;;;4.21;100.00;102247.88;4962265;28;20037;-83
2023/03/02 07:00:31;;;;;;;3.05;2.17;;;;;;;4.18;100.00;102244.47;4994194;28;20090;-82
2023/03/02 07:02:57;;;;;;;3.42;2.75;;;;;;;4.17;100.00;102255.22;4961197;28;20041;-82
2023/03/02 07:05:23;;;;;;;3.92;3.00;;;;;;;4.11;100.00;102251.16;4977779;28;20077;-82
2023/03/02 07:07:49;;;;;;;2.28;1.90;;;;;;;4.02;100.00;102259.69;4962044;28;20077;-80
2023/03/02 07:10:14;;;;;;;2.13;1.60;;;;;;;3.92;100.00;102256.78;4993981;28;20066;-82
2023/03/02 07:12:41;;;;;;;1.73;1.55;;;;;;;3.86;100.00;102264.28;4993654;28;20042;-82
2023/03/02 07:15:12;;;;;;;2.67;1.95;;;;;;;3.79;100.00;102263.81;4977571;28;20022;-81
2023/03/02 07:17:39;;;;;;;4.00;2.38;;;;;;;3.68;100.00;102260.97;4993763;28;20038;-82
2023/03/02 07:20:05;;;;;;;3.55;2.50;;;;;;;3.56;100.00;102257.22;4977236;28;20065;-82
2023/03/02 07:22:31;;;;;;;4.70;2.53;;;;;;;3.57;100.00;102264.25;4977085;28;20077;-80
2023/03/02 07:24:57;;;;;;;2.22;2.03;;;;;;;3.65;100.00;102258.47;4993630;28;20113;-81
2023/03/02 07:27:23;;;;;;;3.60;2.10;;;;;;;3.70;100.00;102259.88;4961346;28;20040;-81
2023/03/02 07:29:48;;;;;;;2.53;2.15;;;;;;;3.76;100.00;102253.38;4977304;28;20022;-82
2023/03/02 07:32:14;;;;;;;3.03;2.10;;;;;;;3.81;100.00;102261.91;4977665;28;20064;-81
2023/03/02 07:34:40;;;;;;;2.92;1.95;;;;;;;3.88;100.00;102263.22;4961615;28;20490;-81
2023/03/02 07:37:05;;;;;;;3.58;1.83;;;;;;;3.87;100.00;102258.88;4976615;28;20086;-81
2023/03/02 07:39:31;;;;;;;2.08;1.50;;;;;;;3.93;100.00;102261.13;4961262;28;20034;-82
2023/03/02 07:41:58;;;;;;;3.53;1.55;;;;;;;3.94;100.00;102262.88;4961309;28;20039;-81
2023/03/02 07:44:24;;;;;;;4.47;2.28;;;;;;;3.99;100.00;102259.03;4993223;28;20465;-81
2023/03/02 07:46:50;;;;;;;3.90;2.00;;;;;;;4.09;100.00;102270.81;4961181;28;20092;-79
2023/03/02 07:49:16;;;;;;;3.53;1.27;;;;;;;4.14;100.00;102274.06;4961409;28;20129;-84
2023/03/02 07:51:41;;;;;;;2.38;2.00;;;;;;;4.20;100.00;102276.31;4977016;28;20568;-82
2023/03/02 07:54:07;;;;;;;3.22;2.45;;;;;;;4.24;100.00;102272.53;4961095;28;20042;-82
2023/03/02 07:56:33;;;;;;;5.15;1.95;;;;;;;4.26;100.00;102273.28;4993241;28;20026;-81
2023/03/02 07:58:59;;;;;;;2.35;2.03;;;;;;;4.29;100.00;102281.06;4960861;28;20026;-81
2023/03/02 08:01:24;;;;;;;2.92;1.75;;;;;;;4.29;100.00;102275.75;4960705;28;20038;-80
2023/03/02 08:03:50;;;;;;;2.08;1.50;;;;;;;4.31;100.00;102281.84;4977044;28;20053;-81
2023/03/02 08:06:16;;;;;;;2.33;1.40;;;;;;;4.35;100.00;102278.00;4977004;28;20038;-82
2023/03/02 08:08:42;;;;;;;5.00;2.40;;;;;;;4.37;100.00;102276.13;4993274;28;20117;-81
2023/03/02 08:11:14;;;;;;;2.00;1.55;;;;;;;4.49;100.00;102281.59;4961029;28;20129;-82
2023/03/02 08:13:40;;;;;;;1.40;1.27;;;;;;;4.60;100.00;102289.75;4976891;28;20046;-83
2023/03/02 08:16:08;;;;;;;3.00;1.73;;;;;;;4.73;100.00;102292.47;4960047;28;20456;-82
2023/03/02 08:18:34;;;;;;;1.35;1.08;;;;;;;4.91;100.00;102301.06;4976526;28;20109;-83
2023/03/02 08:21:00;;;;;;;2.13;1.75;;;;;;;4.98;100.00;102289.91;4960021;28;20038;-83
2023/03/02 08:23:26;;;;;;;3.38;1.75;;;;;;;5.12;100.00;102298.78;4960949;28;20089;-82
2023/03/02 08:25:53;;;;;;;3.40;2.22;;;;;;;5.22;100.00;102300.75;4992567;28;20084;-83
2023/03/02 08:28:19;;;;;;;4.95;2.20;;;;;;;5.22;100.00;102306.06;4992450;28;20034;-83
2023/03/02 08:30:56;;;;;;;3.03;1.75;;;;;;;5.35;100.00;102299.94;4976657;28;20066;-84
2023/03/02 08:33:22;;;;;;;10.82;2.22;;;;;;;5.33;100.00;102310.69;4960943;28;20038;-83
2023/03/02 08:35:56;;;;;;;3.17;2.35;;;;;;;5.10;100.00;102272.22;4960396;28;20369;-81
2023/03/02 08:38:23;;;;;;;2.10;1.70;;;;;;;5.24;100.00;102312.16;4992299;28;20037;-82
2023/03/02 08:40:50;;;;;;;2.80;2.08;;;;;;;5.15;100.00;102312.75;4992333;28;20477;-82
2023/03/02 08:43:17;;;;;;;3.25;1.92;;;;;;;5.20;100.00;102309.81;4992143;28;20026;-85
2023/03/02 08:45:42;;;;;;;2.58;1.60;;;;;;;5.22;100.00;102310.56;4960151;28;20064;-84
2023/03/02 08:48:08;;;;;;;3.97;1.98;;;;;;;5.31;100.00;102309.94;4960192;28;20461;-82
2023/03/02 08:50:34;;;;;;;2.60;2.00;;;;;;;5.48;100.00;102315.00;4976134;28;20038;-81
2023/03/02 08:53:03;;;;;;;3.38;1.85;;;;;;;5.60;100.00;102309.75;4960563;28;20040;-81
2023/03/02 08:55:48;;;;;;;5.45;2.95;;;;;;;5.66;100.00;102312.00;4979512;28;20053;-80
2023/03/02 08:58:13;;;;;;;2.55;1.50;;;;;;;5.67;100.00;102313.72;4960468;28;20381;-83
2023/03/02 09:01:04;;;;;;;4.32;2.13;;;;;;;5.63;100.00;102293.53;4975400;28;20042;-81
2023/03/02 09:03:29;;;;;;;3.42;1.90;;;;;;;5.80;100.00;102313.75;4961657;28;20113;-82
2023/03/02 09:05:57;;;;;;;1.90;1.48;;;;;;;5.91;100.00;102308.50;4960215;28;20129;-80
2023/03/02 09:08:26;;;;;;;2.30;1.90;;;;;;;6.13;100.00;102300.69;4976430;28;20041;-80
2023/03/02 09:10:54;;;;;;;2.90;1.58;;;;;;;6.27;100.00;102313.09;4986238;28;20035;-85
2023/03/02 09:13:20;;;;;;;2.30;1.48;;;;;;;6.43;100.00;102312.84;4991961;28;20492;-82
2023/03/02 09:15:49;;;;;;;3.50;1.48;;;;;;;6.50;100.00;102311.41;4959798;28;20046;-83
2023/03/02 09:18:14;;;;;;;2.05;1.50;;;;;;;6.64;100.00;102307.72;4960433;28;20496;-82
2023/03/02 09:20:40;;;;;;;2.58;1.90;;;;;;;6.96;100.00;102313.41;4960170;28;20038;-83
2023/03/02 09:23:06;;;;;;;3.70;1.95;;;;;;;7.13;98.61;102297.91;4975757;28;20041;-82
2023/03/02 09:25:34;;;;;;;2.38;1.58;;;;;;;7.19;97.61;102290.25;4960576;28;20531;-83
2023/03/02 09:28:00;;;;;;;1.73;1.40;;;;;;;7.37;96.92;102288.00;4959916;28;20030;-82
2023/03/02 09:30:26;;;;;;;2.63;1.95;;;;;;;7.89;93.14;102302.72;4993028;28;20034;-83
2023/03/02 09:32:51;;;;;;;3.17;1.63;;;;;;;8.16;91.76;102301.50;4961636;28;20065;-81
2023/03/02 09:35:19;;;;;;;2.58;1.70;;;;;;;8.32;90.46;102298.44;4995493;28;20034;-81
2023/03/02 09:37:45;;;;;;;2.83;1.95;;;;;;;8.29;90.32;102304.91;4963178;28;20042;-78
2023/03/02 09:40:23;;;;;;;2.45;1.60;;;;;;;8.30;89.22;102311.97;4979450;28;20366;-80
2023/03/02 09:43:01;;;;;;;2.63;1.48;;;;;;;8.21;88.64;102304.66;4963566;28;20042;-80
2023/03/02 09:45:39;;;;;;;2.15;1.70;;;;;;;8.17;87.87;102305.88;4995473;28;20030;-82
2023/03/02 09:48:17;;;;;;;2.15;1.40;;;;;;;8.29;87.66;102296.88;4995190;28;20481;-83
2023/03/02 09:50:53;;;;;;;1.90;1.42;;;;;;;8.30;88.77;102303.91;4979412;28;20034;-84
2023/03/02 09:53:40;;;;;;;3.00;1.45;;;;;;;8.23;86.43;102304.53;4978627;28;20571;-83
2023/03/02 09:56:13;;;;;;;1.58;1.35;;;;;;;8.01;88.76;102308.06;4963302;28;20045;-84
2023/03/02 09:58:39;;;;;;;;;;;;;;;7.98;89.27;102313.69;4963641;28;20149;-82
2023/03/02 10:01:11;;;;;;;1.90;1.30;;;;;;;7.87;90.14;102301.97;4979027;28;20028;-84
2023/03/02 10:03:45;;;;;;;2.05;1.60;;;;;;;7.84;91.92;102315.63;4962878;28;20042;-84
2023/03/02 10:06:11;;;;;;;1.55;1.23;;;;;;;7.84;91.50;102318.28;4978841;28;20511;-83
2023/03/02 10:08:38;;;;;;;2.92;1.20;;;;;;;7.80;92.25;102311.44;4994964;28;20038;-84
2023/03/02 10:11:27;;;;;;;1.60;1.17;;;;;;;7.77;92.57;102302.81;4995281;28;20037;-83
2023/03/02 10:14:07;;;;;;;4.13;1.33;;;;;;;7.83;92.36;102300.53;4962757;28;20412;-83
2023/03/02 10:17:01;;;;;;;1.50;1.10;;;;;;;8.09;90.53;102314.53;4963008;28;20046;-84
2023/03/02 10:19:41;;;;;;;1.50;1.13;;;;;;;8.18;89.64;102314.75;4978662;28;20070;-83
2023/03/02 10:22:17;;;;;;;2.43;1.20;;;;;;;8.23;89.04;102315.25;4994856;28;20034;-84
2023/03/02 10:24:53;;;;;;;1.85;1.20;;;;;;;8.28;88.75;102311.25;4996125;28;20268;-85
2023/03/02 10:27:26;;;;;;;1.85;1.58;;;;;;;8.33;88.50;102314.38;4978751;28;20088;-85
2023/03/02 10:29:55;;;;;;;2.63;1.23;;;;;;;8.43;89.28;102313.69;4994858;28;20042;-82
2023/03/02 10:32:29;;;;;;;2.20;1.50;;;;;;;8.47;89.96;102291.03;4995699;28;20027;-84
2023/03/02 10:34:54;;;;;;;1.70;1.20;;;;;;;8.63;86.55;102309.41;4962632;28;20130;-84
2023/03/02 10:37:23;;;;;;;1.75;1.20;;;;;;;8.56;85.77;102311.72;4994620;28;20022;-84
2023/03/02 10:39:50;;;;;;;2.65;1.48;;;;;;;8.55;85.83;102310.03;4994759;28;20030;-83
2023/03/02 10:42:36;;;;;;;1.67;1.30;;;;;;;8.70;85.83;102314.13;4994715;28;20032;-83
2023/03/02 10:45:30;;;;;;;2.83;1.90;;;;;;;8.85;83.66;102309.34;4978018;28;20046;-83
2023/03/02 10:48:03;;;;;;;2.22;1.73;;;;;;;8.89;84.24;102299.19;4994199;28;20057;-83
2023/03/02 10:50:29;;;;;;;2.55;1.60;;;;;;;8.99;84.56;102311.72;4995545;28;20034;-83
2023/03/02 10:52:55;;;;;;;2.50;1.80;;;;;;;9.29;81.69;102314.66;4995002;28;20469;-83
2023/03/02 10:55:20;;;;;;;3.47;1.98;;;;;;;9.53;81.40;102301.00;4978161;28;20045;-83
2023/03/02 10:58:30;;;;;;;4.00;1.70;;;;;;;9.87;78.40;102306.97;4994546;28;20069;-84
2023/03/02 11:01:14;;;;;;;2.42;1.65;;;;;;;9.96;77.55;102308.88;4995527;28;20129;-83
2023/03/02 11:03:39;;;;;;;1.83;1.55;;;;;;;9.80;78.98;102308.53;4962292;28;20046;-84
2023/03/02 11:06:21;;;;;;;3.75;1.70;;;;;;;9.77;78.13;102298.03;4994009;28;20034;-83
2023/03/02 11:08:57;;;;;;;1.50;1.15;;;;;;;9.94;76.54;102302.78;4978149;28;20027;-82
2023/03/02 11:11:24;;;;;;;3.67;1.30;;;;;;;10.23;76.43;102296.69;4981010;28;20034;-79
2023/03/02 11:13:49;;;;;;;3.83;2.20;;;;;;;10.60;75.66;102312.25;4960102;28;20129;-79
2023/03/02 11:16:18;;;;;;;3.22;1.63;;;;;;;10.70;74.79;102310.44;4975687;28;20034;-81
2023/03/02 11:19:26;;;;;;;2.70;1.60;;;;;;;10.93;74.39;102306.53;4975399;28;20050;-80
2023/03/02 11:21:59;;;;;;;1.38;1.00;;;;;;;11.35;70.69;102308.94;4961406;28;20042;-81
2023/03/02 11:24:32;;;;;;;3.85;1.98;;;;;;;11.52;66.95;102311.88;4961166;28;20053;-82
2023/03/02 11:27:07;;;;;;;3.38;1.10;;;;;;;11.96;68.03;102306.84;4961713;28;20481;-81
2023/03/02 11:30:18;;;;;;;2.80;1.70;;;;;;;12.08;66.70;102303.81;4993577;28;20026;-81
2023/03/02 11:32:51;;;;;;;1.92;1.02;;;;;;;12.59;62.22;102298.03;4962983;28;20049;-80
2023/03/02 11:35:47;;;;;;;3.17;1.25;;;;;;;12.69;62.47;102304.22;4965793;28;20045;-80
2023/03/02 11:38:22;;;;;;;4.80;1.42;;;;;;;12.88;62.04;102304.06;4993560;28;20137;-81